Time;durP1;ratioP1;P1;durP2;ratioP2;P2;SDS_P1;SDS_P2;PMS_P1;PMS_P2;Temp;Humidity;BMP_temperature;BMP_pressure;BME280_temperature;BME280_humidity;BME280_pressure;Samples;Min_cycle;Max_cycle;Signal;HPM_P1;HPM_P2
2022/08/13 04:22:33;;;;;;;2.08;1.45;;;;;;;17.02;57.46;100185.84;5088965;28;20362;-65
2022/08/13 04:24:59;;;;;;;2.15;1.50;;;;;;;17.03;57.57;100182.09;5089020;28;20040;-65
2022/08/13 04:27:25;;;;;;;1.40;1.30;;;;;;;17.02;57.43;100183.97;5088842;28;20445;-65
2022/08/13 04:29:53;;;;;;;2.53;1.45;;;;;;;17.07;57.90;100180.59;5088417;28;20115;-65
2022/08/13 04:32:19;;;;;;;4.05;1.52;;;;;;;17.07;57.53;100183.28;5088756;28;20469;-65
2022/08/13 04:34:45;;;;;;;1.88;1.67;;;;;;;17.07;58.23;100186.00;5089233;28;20048;-65
2022/08/13 04:37:11;;;;;;;2.75;1.50;;;;;;;16.97;58.67;100177.59;5088604;28;20036;-67
2022/08/13 04:39:37;;;;;;;2.08;1.38;;;;;;;16.99;57.69;100181.69;5088326;28;20116;-66
2022/08/13 04:42:03;;;;;;;1.50;1.40;;;;;;;16.99;57.49;100179.00;5088563;28;20086;-65
2022/08/13 04:44:28;;;;;;;2.58;1.38;;;;;;;17.00;57.84;100183.34;5088628;28;20047;-64
2022/08/13 04:46:55;;;;;;;2.33;1.70;;;;;;;17.05;57.78;100185.38;5088516;28;20473;-64
2022/08/13 04:49:20;;;;;;;2.92;1.40;;;;;;;17.06;57.70;100193.25;5088254;28;20040;-64
2022/08/13 04:51:46;;;;;;;2.67;1.50;;;;;;;17.07;57.56;100189.50;5088498;28;20074;-63
2022/08/13 04:54:11;;;;;;;2.03;1.30;;;;;;;17.04;57.85;100192.66;5088550;28;20028;-63
2022/08/13 04:56:37;;;;;;;2.92;1.58;;;;;;;17.01;57.74;100195.75;5088246;28;20041;-64
2022/08/13 04:59:03;;;;;;;3.55;1.58;;;;;;;16.98;58.12;100198.06;5088168;28;20065;-64
2022/08/13 05:01:29;;;;;;;1.52;1.42;;;;;;;16.96;58.30;100197.47;5088234;28;20055;-64
2022/08/13 05:03:55;;;;;;;1.85;1.55;;;;;;;17.02;58.16;100196.59;5088241;28;20044;-63
2022/08/13 05:06:21;;;;;;;2.00;1.60;;;;;;;16.98;58.72;100196.19;5088179;28;20040;-65
2022/08/13 05:08:48;;;;;;;2.42;1.48;;;;;;;17.00;58.37;100196.78;5088041;28;20077;-66
2022/08/13 05:11:15;;;;;;;1.63;1.38;;;;;;;17.01;58.41;100201.13;5087933;28;20396;-65
2022/08/13 05:13:43;;;;;;;1.70;1.33;;;;;;;16.99;58.57;100197.84;5088038;28;20059;-66
2022/08/13 05:16:15;;;;;;;1.65;1.55;;;;;;;16.94;58.66;100200.34;5087849;28;20028;-65
2022/08/13 05:18:45;;;;;;;3.22;1.58;;;;;;;16.99;58.52;100203.22;5087999;28;20035;-65
2022/08/13 05:21:11;;;;;;;1.70;1.50;;;;;;;17.04;58.50;100210.66;5087648;28;20053;-65
2022/08/13 05:23:38;;;;;;;2.05;1.40;;;;;;;17.05;58.56;100213.13;5087920;28;20434;-66
2022/08/13 05:26:04;;;;;;;3.60;1.30;;;;;;;17.08;58.21;100212.72;5087786;28;20473;-66
2022/08/13 05:28:31;;;;;;;2.58;1.48;;;;;;;17.14;58.27;100216.38;5087652;28;20032;-65
2022/08/13 05:30:57;;;;;;;2.60;1.30;;;;;;;17.14;57.97;100216.38;5087420;28;20535;-65
2022/08/13 05:33:25;;;;;;;2.10;1.80;;;;;;;17.19;57.88;100213.03;5077176;28;20119;-66
2022/08/13 05:35:59;;;;;;;1.90;1.70;;;;;;;17.28;58.11;100214.44;5074142;28;20039;-66
2022/08/13 05:38:27;;;;;;;2.55;1.60;;;;;;;17.27;57.87;100215.47;5074035;28;20131;-66
2022/08/13 05:40:56;;;;;;;1.63;1.52;;;;;;;17.34;57.85;100211.72;5073612;28;20033;-63
2022/08/13 05:43:27;;;;;;;2.20;1.42;;;;;;;17.39;57.72;100212.91;5073998;28;20032;-64
2022/08/13 05:45:58;;;;;;;2.47;1.50;;;;;;;17.46;57.69;100217.19;5073987;28;20089;-63
2022/08/13 05:48:30;;;;;;;1.52;1.33;;;;;;;17.48;57.61;100217.00;5073861;28;20040;-65
2022/08/13 05:50:59;;;;;;;2.25;1.42;;;;;;;17.56;57.43;100216.72;5073558;28;20082;-65
2022/08/13 05:53:25;;;;;;;2.33;1.80;;;;;;;17.60;57.38;100210.69;5073845;28;20028;-66
2022/08/13 05:55:53;;;;;;;3.33;1.73;;;;;;;17.68;57.07;100216.81;5073806;28;20434;-63
2022/08/13 05:58:20;;;;;;;1.77;1.52;;;;;;;17.75;56.96;100212.25;5073873;28;20461;-63
2022/08/13 06:03:38;;;;;;;2.58;1.45;;;;;;;17.93;56.50;100201.50;5057519;28;20051;-64
2022/08/13 06:06:09;;;;;;;1.92;1.77;;;;;;;18.02;56.46;100202.03;5073629;28;20397;-64
2022/08/13 06:08:42;;;;;;;1.95;1.58;;;;;;;18.12;55.70;100205.84;5073583;28;20111;-63
2022/08/13 06:11:11;;;;;;;3.20;1.35;;;;;;;18.16;55.52;100198.97;5073407;28;20369;-66
2022/08/13 06:13:40;;;;;;;1.92;1.50;;;;;;;18.27;55.45;100200.09;5072173;28;20044;-64
2022/08/13 06:16:08;;;;;;;1.85;1.48;;;;;;;18.34;55.55;100202.72;5073393;28;20028;-63
2022/08/13 06:18:35;;;;;;;3.53;1.58;;;;;;;18.39;55.18;100202.88;5072222;28;20071;-63
2022/08/13 06:21:04;;;;;;;3.38;1.52;;;;;;;18.45;54.82;100207.34;5072891;28;20075;-67
2022/08/13 06:23:32;;;;;;;1.77;1.63;;;;;;;18.56;54.82;100203.88;5073312;28;20036;-66
2022/08/13 06:25:59;;;;;;;1.90;1.70;;;;;;;18.64;54.64;100200.88;5073200;28;20036;-66
2022/08/13 06:28:30;;;;;;;1.70;1.50;;;;;;;18.72;54.31;100207.06;5073257;28;20040;-66
2022/08/13 06:31:01;;;;;;;2.20;1.50;;;;;;;18.79;54.32;100214.03;5071633;28;20508;-65
2022/08/13 06:33:28;;;;;;;2.97;1.40;;;;;;;18.91;53.77;100205.97;5072826;28;20037;-63
2022/08/13 06:35:57;;;;;;;2.58;1.52;;;;;;;19.01;53.47;100202.72;5072963;28;20473;-64
2022/08/13 06:38:30;;;;;;;1.50;1.40;;;;;;;19.10;53.00;100210.25;5073057;28;20045;-62
2022/08/13 06:41:02;;;;;;;1.30;1.20;;;;;;;19.23;52.83;100211.94;5072609;28;20541;-64
2022/08/13 06:43:30;;;;;;;2.05;1.40;;;;;;;19.35;52.76;100217.38;5073017;28;20047;-47
2022/08/13 06:45:59;;;;;;;2.60;1.50;;;;;;;19.44;52.41;100214.13;5070863;28;20078;-45
2022/08/13 06:48:27;;;;;;;1.60;1.50;;;;;;;19.53;52.43;100215.41;5072753;28;20032;-43
2022/08/13 06:50:53;;;;;;;2.40;1.70;;;;;;;19.64;52.17;100213.81;5072520;28;20035;-42
2022/08/13 06:53:19;;;;;;;1.73;1.60;;;;;;;19.70;52.46;100218.28;5072729;28;20032;-45
2022/08/13 06:55:48;;;;;;;3.13;1.60;;;;;;;19.85;52.06;100217.00;5072584;28;20129;-49
2022/08/13 06:58:14;;;;;;;2.50;1.52;;;;;;;19.93;52.06;100220.16;5072679;28;20049;-46
2022/08/13 07:00:39;;;;;;;2.13;1.50;;;;;;;20.08;51.79;100221.56;5065619;28;20047;-44
2022/08/13 07:03:06;;;;;;;1.73;1.63;;;;;;;20.13;51.15;100224.41;5067611;28;20449;-44
2022/08/13 07:05:37;;;;;;;2.38;1.42;;;;;;;20.27;50.53;100223.91;5072024;28;20036;-45
2022/08/13 07:08:04;;;;;;;1.77;1.45;;;;;;;20.34;50.34;100221.06;5072315;28;20071;-44
2022/08/13 07:10:31;;;;;;;4.68;1.50;;;;;;;20.43;49.78;100224.25;5071401;28;20055;-43
2022/08/13 07:12:58;;;;;;;2.33;1.40;;;;;;;20.47;49.92;100214.59;5072207;28;20044;-45
2022/08/13 07:15:24;;;;;;;2.00;1.40;;;;;;;20.53;49.82;100219.06;5071789;28;20032;-46
2022/08/13 07:17:50;;;;;;;4.05;2.35;;;;;;;20.63;49.95;100224.69;5072157;28;20046;-43
2022/08/13 07:20:16;;;;;;;4.28;2.70;;;;;;;20.66;49.20;100223.38;5071093;28;20036;-43
2022/08/13 07:22:42;;;;;;;3.88;2.92;;;;;;;20.73;49.35;100229.47;5071992;28;20037;-42
2022/08/13 07:25:11;;;;;;;2.70;1.98;;;;;;;20.86;49.17;100221.06;5071753;28;20048;-43
2022/08/13 07:27:41;;;;;;;1.88;1.70;;;;;;;20.91;49.08;100223.06;5071896;28;20042;-42
2022/08/13 07:30:14;;;;;;;2.35;2.08;;;;;;;21.02;48.71;100223.03;5071141;28;20065;-47
2022/08/13 07:32:40;;;;;;;2.95;1.60;;;;;;;21.16;48.27;100225.44;5053096;28;20036;-44
2022/08/13 07:35:08;;;;;;;4.07;1.63;;;;;;;21.22;47.78;100222.56;5051715;28;20127;-42
2022/08/13 07:37:35;;;;;;;2.45;1.70;;;;;;;21.38;48.41;100223.69;5051813;28;20032;-43
2022/08/13 07:40:03;;;;;;;2.17;1.77;;;;;;;21.41;47.74;100225.91;5050997;28;20037;-47
2022/08/13 07:42:34;;;;;;;3.28;1.83;;;;;;;21.52;47.01;100226.91;5050540;28;20482;-43
2022/08/13 07:45:00;;;;;;;4.28;1.60;;;;;;;21.63;47.17;100223.28;5051520;28;20032;-47
2022/08/13 07:47:26;;;;;;;3.08;1.98;;;;;;;21.77;46.79;100223.78;5051453;28;20435;-44
2022/08/13 07:49:54;;;;;;;5.32;2.13;;;;;;;21.83;47.00;100226.31;5050911;28;20524;-46
2022/08/13 07:52:19;;;;;;;2.72;2.28;;;;;;;21.92;46.64;100222.13;5051489;28;20383;-47
2022/08/13 07:54:47;;;;;;;5.22;2.20;;;;;;;21.97;46.48;100221.38;5051552;28;20045;-46
2022/08/13 07:57:12;;;;;;;4.28;2.70;;;;;;;22.07;46.12;100215.28;5051165;28;20029;-48
2022/08/13 07:59:38;;;;;;;3.13;2.38;;;;;;;22.15;45.96;100218.41;5050797;28;20059;-46
2022/08/13 08:02:06;;;;;;;3.63;2.22;;;;;;;22.28;45.72;100214.53;5051321;28;20037;-43
2022/08/13 08:04:34;;;;;;;3.30;2.55;;;;;;;22.35;45.65;100220.59;5051467;28;20037;-44
2022/08/13 08:07:01;;;;;;;2.17;1.88;;;;;;;22.50;46.18;100211.03;5051338;28;20413;-43
2022/08/13 08:09:29;;;;;;;2.00;1.80;;;;;;;22.61;45.54;100207.34;5050724;28;20049;-45
2022/08/13 08:14:41;;;;;;;2.45;1.67;;;;;;;22.87;44.90;100211.19;5051125;28;20044;-46
2022/08/13 08:17:09;;;;;;;1.80;1.50;;;;;;;22.92;44.56;100214.78;5050942;28;20033;-44
2022/08/13 08:19:38;;;;;;;2.88;2.40;;;;;;;23.02;44.35;100217.63;5050600;28;20057;-43
2022/08/13 08:22:05;;;;;;;3.75;1.67;;;;;;;23.01;44.37;100210.53;5050709;28;20041;-46
2022/08/13 08:24:32;;;;;;;3.47;2.42;;;;;;;23.11;44.40;100207.09;5051389;28;20100;-45
2022/08/13 08:27:09;;;;;;;2.90;1.55;;;;;;;23.26;43.67;100209.97;5049597;28;20136;-50
2022/08/13 08:29:36;;;;;;;3.67;1.90;;;;;;;23.40;44.30;100209.53;5050941;28;20119;-47
2022/08/13 08:32:08;;;;;;;3.60;1.67;;;;;;;23.50;43.97;100205.00;5051147;28;20064;-49
2022/08/13 08:34:38;;;;;;;4.30;1.50;;;;;;;23.66;43.69;100207.88;5051274;28;20033;-49
2022/08/13 08:37:05;;;;;;;2.50;1.58;;;;;;;23.77;43.14;100204.16;5050281;28;20064;-46
2022/08/13 08:42:38;;;;;;;2.10;1.85;;;;;;;24.00;41.95;100190.19;5051153;28;20036;-47
2022/08/13 08:45:14;;;;;;;1.77;1.60;;;;;;;24.18;41.45;100199.78;5051021;28;20045;-47
2022/08/13 08:47:40;;;;;;;2.25;1.48;;;;;;;24.22;42.45;100197.38;5051416;28;20044;-47
2022/08/13 08:50:07;;;;;;;2.72;1.67;;;;;;;24.38;41.23;100196.38;5050576;28;20120;-47
2022/08/13 08:55:18;;;;;;;2.63;1.52;;;;;;;24.62;41.23;100189.38;5050834;28;20102;-45
2022/08/13 08:57:44;;;;;;;1.70;1.40;;;;;;;24.78;40.75;100192.19;5051242;28;20037;-46
2022/08/13 09:00:15;;;;;;;1.98;1.45;;;;;;;24.84;40.85;100191.94;5050362;28;20040;-44
2022/08/13 09:02:42;;;;;;;2.95;1.40;;;;;;;24.93;40.35;100186.75;5050132;28;20042;-56
2022/08/13 09:05:14;;;;;;;3.07;1.47;;;;;;;25.02;40.65;100176.94;5050511;28;20024;-54
2022/08/13 09:07:41;;;;;;;2.17;1.50;;;;;;;25.10;40.60;100184.66;5051390;28;20178;-57
2022/08/13 09:10:09;;;;;;;3.30;1.98;;;;;;;25.31;40.00;100180.03;5054055;28;20076;-59
2022/08/13 09:12:40;;;;;;;1.60;1.40;;;;;;;25.44;38.98;100179.47;5054440;28;20041;-44
2022/08/13 09:15:07;;;;;;;3.90;3.10;;;;;;;25.54;38.53;100181.38;5054576;28;20418;-58
2022/08/13 09:17:33;;;;;;;2.75;1.75;;;;;;;25.80;38.65;100176.72;5054540;28;20052;-59
2022/08/13 09:19:59;;;;;;;2.10;1.80;;;;;;;25.90;37.80;100176.72;5053001;28;20041;-59
2022/08/13 09:22:25;;;;;;;2.20;1.83;;;;;;;26.10;37.51;100166.84;5054224;28;20496;-61
2022/08/13 09:24:57;;;;;;;2.10;1.90;;;;;;;26.28;38.20;100165.41;5054453;28;20060;-59
2022/08/13 09:27:22;;;;;;;1.88;1.67;;;;;;;26.43;36.49;100162.66;5054296;28;20474;-57
2022/08/13 09:29:50;;;;;;;2.85;1.67;;;;;;;26.58;35.13;100170.75;5054075;28;20033;-59
2022/08/13 09:32:16;;;;;;;3.03;1.50;;;;;;;26.75;35.67;100154.84;5054272;28;20064;-59
2022/08/13 09:34:44;;;;;;;2.05;1.70;;;;;;;26.96;35.34;100163.72;5054235;28;20029;-45
2022/08/13 09:37:12;;;;;;;1.55;1.45;;;;;;;27.12;35.61;100158.16;5054224;28;20127;-50
2022/08/13 09:39:51;;;;;;;2.97;1.50;;;;;;;27.20;34.92;100169.31;5053976;28;20600;-47
2022/08/13 09:42:24;;;;;;;3.40;2.20;;;;;;;27.36;34.54;100158.25;5054086;28;20052;-60
2022/08/13 09:44:56;;;;;;;3.38;1.60;;;;;;;27.46;32.85;100169.13;5054221;28;20033;-59
2022/08/13 09:47:22;;;;;;;2.50;1.63;;;;;;;27.78;32.83;100161.16;5054269;28;20119;-59
2022/08/13 09:49:48;;;;;;;2.25;1.40;;;;;;;28.06;31.81;100161.41;5053800;28;20426;-59
2022/08/13 09:52:15;;;;;;;1.90;1.60;;;;;;;28.25;31.80;100154.06;5054116;28;20470;-61
2022/08/13 09:54:42;;;;;;;1.73;1.63;;;;;;;28.24;31.99;100151.63;5054060;28;20048;-60
2022/08/13 09:57:07;;;;;;;2.53;1.73;;;;;;;28.30;32.72;100150.44;5053878;28;20048;-61
2022/08/13 09:59:33;;;;;;;2.40;1.50;;;;;;;28.78;32.28;100145.72;5053721;28;20317;-61
2022/08/13 10:02:09;;;;;;;2.97;1.40;;;;;;;29.07;31.43;100150.22;5053719;28;20047;-60
2022/08/13 10:04:38;;;;;;;3.57;1.30;;;;;;;28.91;31.31;100139.50;5053988;28;20037;-59
2022/08/13 10:07:05;;;;;;;1.75;1.63;;;;;;;29.37;30.70;100136.03;5053700;28;20461;-62
2022/08/13 10:09:33;;;;;;;;;;;;;;;29.81;29.96;100140.19;5053962;28;20052;-61
2022/08/13 10:12:03;;;;;;;2.33;1.50;;;;;;;30.01;30.10;100136.25;5053956;28;19986;-64
2022/08/13 10:14:28;;;;;;;1.40;1.30;;;;;;;30.46;28.34;100136.44;5053677;28;20064;-65
2022/08/13 10:16:54;;;;;;;2.20;1.48;;;;;;;30.57;28.19;100129.56;5053657;28;20067;-64
2022/08/13 10:19:20;;;;;;;2.10;1.55;;;;;;;30.95;27.27;100130.09;5053189;28;20428;-63
2022/08/13 10:21:46;;;;;;;3.03;1.30;;;;;;;31.25;27.33;100136.81;5053324;28;20486;-64
2022/08/13 10:24:12;;;;;;;1.85;1.30;;;;;;;31.18;27.77;100135.63;5053487;28;20079;-64
2022/08/13 10:26:40;;;;;;;1.58;1.10;;;;;;;31.53;26.37;100134.72;5053611;28;20077;-64
2022/08/13 10:29:10;;;;;;;2.58;1.40;;;;;;;31.66;26.34;100130.25;5053216;28;20076;-64
2022/08/13 10:31:37;;;;;;;1.50;1.20;;;;;;;31.94;26.64;100125.34;5053312;28;20078;-64
2022/08/13 10:34:03;;;;;;;1.48;1.35;;;;;;;31.93;26.61;100126.50;5053761;28;20036;-63
2022/08/13 10:36:30;;;;;;;;;;;;;;;32.12;25.32;100107.75;5053612;28;20410;-64
2022/08/13 10:38:56;;;;;;;1.35;1.02;;;;;;;32.41;26.11;100111.91;5052989;28;20025;-64
2022/08/13 10:41:22;;;;;;;1.77;1.40;;;;;;;32.76;25.22;100111.94;5053866;28;20036;-64
2022/08/13 10:43:48;;;;;;;1.53;1.20;;;;;;;32.62;24.78;100110.16;5066971;28;20131;-64
2022/08/13 10:46:16;;;;;;;1.35;1.25;;;;;;;32.69;24.76;100109.66;5071445;28;20028;-62
2022/08/13 10:48:45;;;;;;;1.70;1.10;;;;;;;32.89;23.52;100105.47;5073180;28;20405;-64
2022/08/13 10:51:11;;;;;;;2.53;1.20;;;;;;;33.06;22.89;100110.13;5071725;28;20037;-63
2022/08/13 10:53:55;;;;;;;2.23;1.20;;;;;;;33.32;22.87;100099.03;5072874;28;20055;-63
2022/08/13 10:56:22;;;;;;;1.45;1.10;;;;;;;32.99;22.64;100093.28;5072244;28;20489;-63
2022/08/13 10:58:48;;;;;;;2.05;1.10;;;;;;;33.35;22.88;100096.44;5072530;28;20047;-63
2022/08/13 11:01:14;;;;;;;1.53;1.20;;;;;;;33.16;22.05;100085.78;5071798;28;20028;-63
2022/08/13 11:03:40;;;;;;;3.23;1.10;;;;;;;33.11;22.85;100091.47;5072617;28;20400;-63
2022/08/13 11:06:07;;;;;;;1.63;1.00;;;;;;;32.72;22.68;100092.44;5072417;28;20051;-63
2022/08/13 11:08:37;;;;;;;;;;;;;;;33.33;22.65;100093.22;5071777;28;20123;-62
2022/08/13 11:11:08;;;;;;;2.80;1.20;;;;;;;33.64;22.65;100094.91;5067285;28;19920;-63
2022/08/13 11:13:36;;;;;;;3.40;1.40;;;;;;;34.29;22.15;100083.34;5052736;28;20417;-64
2022/08/13 11:16:03;;;;;;;1.92;1.38;;;;;;;34.08;21.95;100090.81;5051958;28;20041;-64
2022/08/13 11:18:29;;;;;;;1.60;1.30;;;;;;;34.19;21.92;100092.06;5050866;28;20147;-63
2022/08/13 11:21:06;;;;;;;3.53;1.20;;;;;;;34.62;21.37;100092.91;5051294;28;20422;-63
2022/08/13 11:23:35;;;;;;;1.60;1.30;;;;;;;34.52;21.83;100085.84;5052262;28;20052;-63
2022/08/13 11:26:01;;;;;;;2.75;1.38;;;;;;;34.10;21.81;100085.75;5051751;28;20041;-64
2022/08/13 11:28:26;;;;;;;2.00;1.30;;;;;;;35.13;22.11;100088.88;5052056;28;20036;-64
2022/08/13 11:30:54;;;;;;;2.87;1.40;;;;;;;35.19;21.00;100083.94;5050503;28;20052;-63
2022/08/13 11:33:21;;;;;;;2.22;1.30;;;;;;;35.48;20.78;100083.81;5052102;28;20120;-63
2022/08/13 11:35:47;;;;;;;3.60;1.30;;;;;;;35.30;20.51;100085.13;5051991;28;20059;-64
2022/08/13 11:38:14;;;;;;;1.77;1.10;;;;;;;35.20;20.78;100080.81;5051890;28;20124;-63
2022/08/13 11:40:52;;;;;;;1.83;1.30;;;;;;;35.51;20.48;100079.53;5051079;28;20775;-63
2022/08/13 11:43:17;;;;;;;2.80;1.27;;;;;;;35.26;20.87;100076.69;5050740;28;20041;-64
2022/08/13 11:45:43;;;;;;;2.23;1.20;;;;;;;35.53;20.70;100091.06;5051879;28;20095;-64
2022/08/13 11:48:09;;;;;;;2.80;1.17;;;;;;;34.77;21.12;100075.72;5051957;28;20041;-64
2022/08/13 11:50:34;;;;;;;1.37;1.20;;;;;;;35.53;21.10;100075.25;5051167;28;20043;-63
2022/08/13 11:53:01;;;;;;;2.00;1.20;;;;;;;35.93;20.45;100074.63;5052045;28;20559;-59
2022/08/13 11:55:26;;;;;;;1.30;1.20;;;;;;;34.81;20.85;100065.56;5051873;28;20042;-61
2022/08/13 11:58:02;;;;;;;2.27;1.03;;;;;;;35.30;20.58;100072.09;5051670;28;20045;-62
2022/08/13 12:00:28;;;;;;;2.05;1.33;;;;;;;35.29;20.39;100062.19;5051028;28;20047;-60
2022/08/13 12:02:54;;;;;;;2.03;1.17;;;;;;;35.21;20.54;100062.25;5051735;28;20037;-62
2022/08/13 12:05:19;;;;;;;1.80;1.10;;;;;;;35.03;20.75;100065.22;5051724;28;20056;-62
2022/08/13 12:07:45;;;;;;;2.33;1.50;;;;;;;35.40;21.10;100059.75;5051721;28;20287;-62
2022/08/13 12:10:11;;;;;;;3.10;1.73;;;;;;;35.68;20.02;100059.13;5050702;28;20028;-62
2022/08/13 12:12:37;;;;;;;6.88;2.63;;;;;;;35.31;21.05;100065.41;5050452;28;20442;-60
2022/08/13 12:15:03;;;;;;;3.40;1.80;;;;;;;35.18;20.97;100069.28;5051534;28;20033;-58
2022/08/13 12:17:29;;;;;;;2.17;1.63;;;;;;;35.49;20.90;100065.22;5051680;28;20115;-61
2022/08/13 12:19:55;;;;;;;;;;;;;;;35.48;20.26;100063.63;5051281;28;20041;-57
2022/08/13 12:22:20;;;;;;;2.00;1.80;;;;;;;36.11;20.40;100066.84;5051461;28;19943;-62
2022/08/13 12:24:46;;;;;;;2.30;1.60;;;;;;;36.34;20.51;100056.06;5051624;28;20454;-60
2022/08/13 12:27:11;;;;;;;3.70;1.73;;;;;;;36.74;19.38;100058.84;5033610;28;20393;-60
2022/08/13 12:29:36;;;;;;;3.97;1.50;;;;;;;36.50;20.04;100056.97;5049764;28;20044;-62
2022/08/13 12:32:02;;;;;;;2.57;1.53;;;;;;;36.27;19.81;100053.91;5051723;28;20462;-63
2022/08/13 12:34:27;;;;;;;2.70;1.40;;;;;;;36.51;19.94;100050.25;5051401;28;20044;-60
2022/08/13 12:36:53;;;;;;;3.07;1.40;;;;;;;36.75;19.14;100040.22;5051457;28;20037;-62
2022/08/13 12:39:18;;;;;;;2.17;1.23;;;;;;;36.18;19.44;100035.75;5049461;28;20048;-61
2022/08/13 12:41:44;;;;;;;1.77;1.23;;;;;;;36.06;19.39;100034.66;5051148;28;20033;-59
2022/08/13 12:44:10;;;;;;;3.67;1.53;;;;;;;35.67;20.19;100038.09;5053501;28;20482;-57
2022/08/13 12:46:36;;;;;;;1.90;1.30;;;;;;;35.41;20.27;100027.34;5055003;28;20029;-60
2022/08/13 12:49:03;;;;;;;1.97;1.50;;;;;;;35.78;20.31;100033.72;5036221;28;20375;-61
2022/08/13 12:51:29;;;;;;;4.68;1.40;;;;;;;35.93;20.09;100033.06;5054338;28;20044;-59
2022/08/13 12:53:54;;;;;;;2.27;1.30;;;;;;;36.68;19.14;100026.97;5055269;28;20049;-62
2022/08/13 12:56:20;;;;;;;1.70;1.60;;;;;;;36.69;19.32;100020.25;5054796;28;20048;-61
2022/08/13 12:58:45;;;;;;;1.60;1.43;;;;;;;37.00;19.27;100025.09;5058242;28;20040;-61
2022/08/13 13:01:11;;;;;;;5.17;1.37;;;;;;;36.58;19.87;100019.97;5056757;28;20041;-59
2022/08/13 13:03:36;;;;;;;1.97;1.37;;;;;;;34.79;20.47;100024.41;5037062;28;20033;-59
2022/08/13 13:06:02;;;;;;;1.53;1.43;;;;;;;35.81;20.60;100008.09;5054900;28;20040;-61
2022/08/13 13:08:31;;;;;;;2.35;1.80;;;;;;;36.53;19.52;100005.53;5053696;28;20089;-61
2022/08/13 13:10:59;;;;;;;1.45;1.20;;;;;;;36.52;19.37;100007.50;5053980;28;20048;-59
2022/08/13 13:13:26;;;;;;;4.03;2.72;;;;;;;37.11;19.90;99998.44;5055073;28;20056;-61
2022/08/13 13:15:53;;;;;;;2.42;2.13;;;;;;;37.36;18.96;99999.06;5055431;28;20025;-61
2022/08/13 13:18:21;;;;;;;3.00;1.15;;;;;;;37.60;18.84;100002.81;5055173;28;20405;-60
2022/08/13 13:20:49;;;;;;;2.38;1.55;;;;;;;37.66;18.03;100010.50;5054378;28;20033;-59
2022/08/13 13:23:19;;;;;;;1.88;1.42;;;;;;;37.42;18.63;100011.50;5053240;28;20033;-61
2022/08/13 13:25:46;;;;;;;2.50;1.80;;;;;;;37.53;18.17;100005.41;5059169;28;20036;-62
2022/08/13 13:28:15;;;;;;;1.45;1.25;;;;;;;38.00;18.08;99999.78;5074503;28;20040;-62
2022/08/13 13:30:42;;;;;;;2.58;1.50;;;;;;;37.83;17.77;99995.47;5057939;28;20045;-59
2022/08/13 13:33:09;;;;;;;5.20;1.50;;;;;;;37.65;17.84;100005.31;5060801;28;20071;-61
2022/08/13 13:35:37;;;;;;;2.25;1.45;;;;;;;37.90;16.97;99984.50;5074385;28;20043;-59
2022/08/13 13:38:04;;;;;;;2.00;1.15;;;;;;;38.00;17.65;99995.03;5074381;28;20041;-61
2022/08/13 13:40:30;;;;;;;1.70;1.08;;;;;;;36.81;18.77;99980.53;5072544;28;20098;-62
2022/08/13 13:42:57;;;;;;;2.30;1.23;;;;;;;36.33;20.06;99979.59;5054632;28;20044;-60
2022/08/13 13:45:22;;;;;;;;;;;;;;;35.17;19.62;99978.31;5054413;28;20490;-61
2022/08/13 13:47:48;;;;;;;2.95;1.30;;;;;;;34.50;21.04;99969.25;5053038;28;19978;-61
2022/08/13 13:50:13;;;;;;;1.43;1.23;;;;;;;34.15;21.21;99972.28;5053413;28;20118;-61
2022/08/13 13:52:39;;;;;;;2.43;1.20;;;;;;;33.06;22.44;99975.78;5054046;28;20056;-60
2022/08/13 13:55:05;;;;;;;1.30;1.20;;;;;;;33.34;21.31;99967.88;5053639;28;20136;-61
2022/08/13 13:57:30;;;;;;;2.50;1.67;;;;;;;33.54;22.24;99963.59;5052579;28;20486;-58
2022/08/13 13:59:56;;;;;;;3.60;1.50;;;;;;;33.48;21.61;99962.16;5053334;28;20114;-61
2022/08/13 14:02:22;;;;;;;3.60;1.70;;;;;;;33.41;22.06;99953.59;5054004;28;20045;-61
2022/08/13 14:04:48;;;;;;;8.95;5.03;;;;;;;33.33;21.69;99957.19;5053203;28;20033;-61
2022/08/13 14:07:16;;;;;;;3.95;2.03;;;;;;;33.20;21.67;99956.25;5063496;28;20117;-58
2022/08/13 14:09:41;;;;;;;3.33;1.23;;;;;;;32.65;22.18;99962.56;5073482;28;20074;-61
2022/08/13 14:12:07;;;;;;;3.27;1.10;;;;;;;32.77;22.42;99950.84;5073341;28;20060;-59
2022/08/13 14:14:33;;;;;;;2.23;1.90;;;;;;;32.85;21.69;99953.59;5073730;28;20512;-58
2022/08/13 14:17:00;;;;;;;1.40;1.20;;;;;;;32.38;21.61;99955.47;5073580;28;20044;-58
2022/08/13 14:19:28;;;;;;;2.50;1.38;;;;;;;32.02;22.24;99944.75;5073224;28;20313;-59
2022/08/13 14:21:54;;;;;;;2.03;1.50;;;;;;;31.78;22.80;99940.53;5073649;28;20075;-60
2022/08/13 14:24:20;;;;;;;1.70;1.60;;;;;;;31.93;23.22;99938.44;5073517;28;20064;-60
2022/08/13 14:26:46;;;;;;;2.30;1.42;;;;;;;31.74;23.34;99946.97;5073342;28;20041;-59
2022/08/13 14:29:15;;;;;;;2.22;1.30;;;;;;;31.54;22.72;99946.44;5073117;28;20032;-60
2022/08/13 14:31:41;;;;;;;1.33;1.20;;;;;;;31.55;23.35;99937.03;5073192;28;20128;-59
2022/08/13 14:34:07;;;;;;;1.67;1.30;;;;;;;31.65;23.77;99935.13;5071936;28;20131;-61
2022/08/13 14:36:33;;;;;;;2.28;1.40;;;;;;;31.59;23.29;99938.03;5073093;28;20109;-57
2022/08/13 14:39:00;;;;;;;0.95;0.95;;;;;;;31.78;22.82;99935.03;5073151;28;20032;-61
2022/08/13 14:41:26;;;;;;;;;;;;;;;31.55;23.17;99930.72;5073368;28;20032;-59
2022/08/13 14:43:51;;;;;;;1.20;1.10;;;;;;;31.40;22.68;99937.50;5073138;28;19923;-59
2022/08/13 14:46:17;;;;;;;1.58;1.30;;;;;;;31.46;24.18;99927.97;5073055;28;20040;-59
2022/08/13 14:48:43;;;;;;;3.08;1.40;;;;;;;31.54;23.09;99923.59;5073005;28;20040;-62
2022/08/13 14:51:09;;;;;;;1.35;1.25;;;;;;;31.46;23.42;99919.72;5072811;28;20040;-59
2022/08/13 14:53:36;;;;;;;2.22;1.48;;;;;;;31.42;23.05;99906.91;5072961;28;20132;-59
2022/08/13 14:56:01;;;;;;;;;;;;;;;31.47;22.81;99921.31;5073245;28;20430;-61
2022/08/13 14:58:29;;;;;;;1.60;1.30;;;;;;;31.47;23.29;99926.03;5072891;28;20038;-59
2022/08/13 15:00:56;;;;;;;1.67;1.23;;;;;;;31.41;23.28;99913.53;5072363;28;20040;-62
2022/08/13 15:03:23;;;;;;;1.70;1.30;;;;;;;31.37;23.21;99915.31;5072687;28;20051;-62
2022/08/13 15:05:51;;;;;;;2.13;1.08;;;;;;;31.05;24.03;99911.78;5071762;28;20138;-59
2022/08/13 15:08:18;;;;;;;1.42;1.25;;;;;;;31.00;24.04;99912.72;5072539;28;20033;-61
2022/08/13 15:10:54;;;;;;;2.05;1.63;;;;;;;31.14;24.17;99906.31;5072140;28;20037;-60
2022/08/13 15:13:21;;;;;;;3.90;2.58;;;;;;;30.99;24.04;99908.38;5072554;28;20505;-59
2022/08/13 15:15:48;;;;;;;3.28;1.70;;;;;;;31.04;24.33;99904.66;5072235;28;20106;-58
2022/08/13 15:18:16;;;;;;;3.35;1.73;;;;;;;31.05;24.20;99909.03;5072621;28;20374;-59
2022/08/13 15:20:42;;;;;;;2.97;1.70;;;;;;;31.08;24.18;99898.19;5071932;28;20486;-58
2022/08/13 15:23:09;;;;;;;1.92;1.63;;;;;;;30.92;24.20;99898.97;5072516;28;20106;-58
2022/08/13 15:25:35;;;;;;;2.30;1.50;;;;;;;31.01;24.21;99902.53;5072280;28;20543;-58
2022/08/13 15:28:00;;;;;;;2.45;1.77;;;;;;;30.93;23.91;99895.88;5072240;28;20028;-59
2022/08/13 15:30:27;;;;;;;2.63;1.60;;;;;;;30.97;23.89;99888.63;5070576;28;20578;-58
2022/08/13 15:33:01;;;;;;;2.90;1.50;;;;;;;30.68;23.84;99883.63;5072132;28;20036;-60
2022/08/13 15:35:32;;;;;;;1.60;1.50;;;;;;;30.72;24.29;99887.38;5071853;28;20044;-57
2022/08/13 15:37:59;;;;;;;2.42;1.38;;;;;;;30.66;24.73;99891.38;5072054;28;20389;-60
2022/08/13 15:40:25;;;;;;;2.65;1.30;;;;;;;30.56;24.72;99879.81;5071669;28;20549;-60
2022/08/13 15:42:51;;;;;;;1.63;1.33;;;;;;;30.69;25.41;99884.44;5071805;28;20028;-60
2022/08/13 15:45:17;;;;;;;3.38;1.50;;;;;;;30.68;24.96;99869.91;5071896;28;20444;-60
2022/08/13 15:47:43;;;;;;;2.15;1.40;;;;;;;30.71;25.04;99866.53;5071922;28;20045;-61
2022/08/13 15:50:10;;;;;;;1.53;1.27;;;;;;;30.59;24.83;99868.22;5071539;28;20039;-60
2022/08/13 15:52:37;;;;;;;3.40;1.70;;;;;;;30.67;24.85;99865.53;5071898;28;20043;-60
2022/08/13 15:55:05;;;;;;;3.95;1.60;;;;;;;30.68;24.52;99855.34;5071739;28;20036;-61
2022/08/13 15:57:30;;;;;;;1.65;1.33;;;;;;;30.64;24.73;99863.38;5071701;28;20074;-60
2022/08/13 15:59:56;;;;;;;2.03;1.83;;;;;;;30.63;24.92;99852.69;5071516;28;20551;-60
2022/08/13 16:02:22;;;;;;;3.13;1.55;;;;;;;30.63;24.61;99856.25;5071690;28;20127;-60